Rostein — LLHI — position and weather

sailwx.info

Track history (hours):
 
Tides and Currents Weather Stations Pressure Air Temp Water Temp Dewpoint Dewpoint Depression Visibility Wind Speed Wind Dir Waves Ship Positions

Rostein

Last reported at 2015-Aug-03 11:06 UTC. Time now 2015-Aug-29 09:29 UTC.
Position N 63°09' E 007°42'.
Warning: this ship's position is 25 days out of date.

Length 57 m; draft 5 m.

Type: Cargo ship. MMSI: 257210000.

Date/timePositionNaut miles runAvg speedWind from/ knotsBaromVisibWave heightAir tempDewpointWater temp
2015-Aug-03 11:06N 63°09' E 007°42'5211.3
2015-Aug-03 06:32N 63°35' E 009°23'1110.7
2015-Aug-03 05:33N 63°44' E 009°32'1110.9
2015-Aug-03 04:33N 63°54' E 009°46'1110.6
2015-Aug-03 03:33N 64°02' E 010°00'5010.1
2015-Aug-02 22:33N 64°45' E 011°00'1110.9
2015-Aug-02 21:33N 64°53' E 011°18'1111.1
2015-Aug-02 20:33N 65°00' E 011°38'1410.9
2015-Aug-02 19:17N 65°12' E 011°53'5711.0
2015-Aug-02 14:05N 66°06' E 012°43'1811.2
2015-Aug-02 12:30N 66°22' E 012°58'2110.9
2015-Aug-02 10:33N 66°43' E 013°10'1211.0
2015-Aug-02 09:27N 66°54' E 013°25'9 9.6
2015-Aug-02 08:31N 67°02' E 013°32'1010.8
2015-Aug-02 07:33N 67°12' E 013°40'1211.4
2015-Aug-02 06:32N 67°21' E 013°60'9 9.8
2015-Aug-02 05:33N 67°30' E 014°10'20 9.5
2015-Aug-02 03:31N 67°49' E 014°22'142 9.9
2015-Aug-01 13:13N 69°33' E 018°44'6 9.5
2015-Aug-01 12:33N 69°38' E 018°56'  
2015-Jul-29 15:33N 69°25' E 033°10'0 0.0
2015-Jul-29 14:33N 69°25' E 033°10'  
2015-Jul-26 13:03N 69°42' E 019°03'3 6.5
2015-Jul-26 12:33N 69°40' E 018°58'0 0.0
2015-Jul-26 11:33N 69°40' E 018°58'153 8.9
2015-Jul-25 18:28N 67°46' E 014°16'910.4
2015-Jul-25 17:33N 67°37' E 014°13'1010.4
2015-Jul-25 16:33N 67°27' E 014°11'1110.6
2015-Jul-25 15:33N 67°19' E 013°52'20 9.8
2015-Jul-25 13:32N 67°00' E 013°32'31 9.5
2015-Jul-25 10:15N 66°32' E 012°59'710.2
2015-Jul-25 09:32N 66°25' E 012°59'68 9.1
2015-Jul-25 02:07N 65°21' E 012°03'610.0
2015-Jul-25 01:33N 65°16' E 011°57'1010.0
2015-Jul-25 00:33N 65°07' E 011°49'10 9.8
2015-Jul-24 23:33N 64°59' E 011°35'1010.1
2015-Jul-24 22:33N 64°52' E 011°17'52 9.5
2015-Jul-24 17:05N 64°15' E 009°51'5 9.6
2015-Jul-24 16:32N 64°10' E 009°48'9 9.7
2015-Jul-24 15:33N 64°01' E 009°47'8 7.9
2015-Jul-24 14:33N 63°54' E 009°56'2 1.6
2015-Jul-24 13:33N 63°52' E 009°56'0 0.0
2015-Jul-24 12:33N 63°52' E 009°56'0 0.0
2015-Jul-24 11:33N 63°52' E 009°56'  
Track history (hours):
 
Tides and Currents Weather Stations Pressure Air Temp Water Temp Dewpoint Dewpoint Depression Visibility Wind Speed Wind Dir Waves Ship Positions

Rostein

Last reported at 2015-Aug-03 11:06 UTC. Time now 2015-Aug-29 09:29 UTC.
Position N 63°09' E 007°42'.
Warning: this ship's position is 25 days out of date.

Length 57 m; draft 5 m.

Type: Cargo ship. MMSI: 257210000.

Date/timePositionNaut miles runAvg speedWind from/ knotsBaromVisibWave heightAir tempDewpointWater temp
2015-Aug-03 11:06N 63°09' E 007°42'5211.3
2015-Aug-03 06:32N 63°35' E 009°23'1110.7
2015-Aug-03 05:33N 63°44' E 009°32'1110.9
2015-Aug-03 04:33N 63°54' E 009°46'1110.6
2015-Aug-03 03:33N 64°02' E 010°00'5010.1
2015-Aug-02 22:33N 64°45' E 011°00'1110.9
2015-Aug-02 21:33N 64°53' E 011°18'1111.1
2015-Aug-02 20:33N 65°00' E 011°38'1410.9
2015-Aug-02 19:17N 65°12' E 011°53'5711.0
2015-Aug-02 14:05N 66°06' E 012°43'1811.2
2015-Aug-02 12:30N 66°22' E 012°58'2110.9
2015-Aug-02 10:33N 66°43' E 013°10'1211.0
2015-Aug-02 09:27N 66°54' E 013°25'9 9.6
2015-Aug-02 08:31N 67°02' E 013°32'1010.8
2015-Aug-02 07:33N 67°12' E 013°40'1211.4
2015-Aug-02 06:32N 67°21' E 013°60'9 9.8
2015-Aug-02 05:33N 67°30' E 014°10'20 9.5
2015-Aug-02 03:31N 67°49' E 014°22'142 9.9
2015-Aug-01 13:13N 69°33' E 018°44'6 9.5
2015-Aug-01 12:33N 69°38' E 018°56'  
2015-Jul-29 15:33N 69°25' E 033°10'0 0.0
2015-Jul-29 14:33N 69°25' E 033°10'  
2015-Jul-26 13:03N 69°42' E 019°03'3 6.5
2015-Jul-26 12:33N 69°40' E 018°58'0 0.0
2015-Jul-26 11:33N 69°40' E 018°58'153 8.9
2015-Jul-25 18:28N 67°46' E 014°16'910.4
2015-Jul-25 17:33N 67°37' E 014°13'1010.4
2015-Jul-25 16:33N 67°27' E 014°11'1110.6
2015-Jul-25 15:33N 67°19' E 013°52'20 9.8
2015-Jul-25 13:32N 67°00' E 013°32'31 9.5
2015-Jul-25 10:15N 66°32' E 012°59'710.2
2015-Jul-25 09:32N 66°25' E 012°59'68 9.1
2015-Jul-25 02:07N 65°21' E 012°03'610.0
2015-Jul-25 01:33N 65°16' E 011°57'1010.0
2015-Jul-25 00:33N 65°07' E 011°49'10 9.8
2015-Jul-24 23:33N 64°59' E 011°35'1010.1
2015-Jul-24 22:33N 64°52' E 011°17'52 9.5
2015-Jul-24 17:05N 64°15' E 009°51'5 9.6
2015-Jul-24 16:32N 64°10' E 009°48'9 9.7
2015-Jul-24 15:33N 64°01' E 009°47'8 7.9
2015-Jul-24 14:33N 63°54' E 009°56'2 1.6
2015-Jul-24 13:33N 63°52' E 009°56'0 0.0
2015-Jul-24 12:33N 63°52' E 009°56'0 0.0
2015-Jul-24 11:33N 63°52' E 009°56'  

Dump ship's entire track history